Bedford, MA (01730)

1:42 PM EST on February 10, 2016 (GMT -0500)
Old Depot Area | | Change Station
CLOSE
Current Station
Personal Weather Station
Location: Bedford, MA
Elevation: 130 ft
Nearby Weather Stations

Elev 130 ft 42.49 °N, 71.28 °W | Updated 2 minutes ago

Overcast
Overcast
36.9 °F
Feels Like 37 °F
N
0.0
Wind Variable Wind from North
Gusts 0.0 mph

Today
High -- | Low -- °F
--% Chance of Precip.
Yesterday
High -- | Low -- °F
Precip. -- in
Pressure 29.59 in
Visibility 10.0 miles
Clouds Overcast 1700 ft
Windchill 37 °F
Dew Point Not available.
Humidity Not available.
Rainfall 0.00 in
Snow Depth Not available.
6:49 AM 5:10 PM
Waxing Crescent, 6% visible
METAR KBED 101756Z 24004KT 10SM OVC017 01/M03 A2953 RMK AO2 SLP018 60000 I6000 T00061028 10006 21094 58022
Pressure 29.59 in
Visibility 10.0 miles
Clouds Overcast 1700 ft
Windchill 37 °F
Dew Point Not available.
Humidity Not available.
Rainfall 0.00 in
Snow Depth Not available.
6:49 AM 5:10 PM
Waxing Crescent, 6% visible
METAR KBED 101756Z 24004KT 10SM OVC017 01/M03 A2953 RMK AO2 SLP018 60000 I6000 T00061028 10006 21094 58022

10-Day Weather Forecast

Almanac

Astronomy

Feb. 10, 2016 Rise Set
Actual Time
Civil Twilight
Nautical Twilight
Astronomical Twilight
Moon
Length of Visible Light
Length of Day
Tomorrow will be .
, % of the Moon is Illuminated

Today's Extremes

State Highs State Lows

Community

WunderPhotos

Upload Photos

1,891,915 photos uploaded!

WunderBlog® & News

Nearby

Air Quality

  Air Quality AQ Index Pollutant
Not available.

Snow Depth

Station Depth Elevation

Earthquake Activity

City Distance Mag. Time & Date
Minimum magnitude displayed is 2.5.

Coastal Water Temperatures

Place Temperature

Stations

Nearby Weather Stations

Station Location Temp. Windchill Dew Point Humidity Wind Precip. Elev Updated Type
                   

Watches & Warnings

Special Statement
Issued: 10:34 AM EST Feb. 10, 2016 – National Weather Service

... Scattered but locally heavy snow showers possible this
afternoon...

An area of snow produced minor accumulations in western New
England earlier this morning. Light snow is lifting across
Massachusetts... but another round of scattered snow showers is
expected this afternoon across southern New England.

While much of the activity will be light... localized heavier snow
showers and squalls may result in a quick inch or two of snowfall
in a short time. Any heavier squalls will be isolated but where
they occur will result in roads quickly becoming snow covered and
briefly poor visibility.

Motorists traveling today should be prepared for snow covered
roads and briefly poor visibility.